sensor_id;sensor_type;location;lat;lon;timestamp;temperature;humidity
14682;DHT22;7429;52.498;13.480;2022-08-07T00:02:04;15.20;99.90
14682;DHT22;7429;52.498;13.480;2022-08-07T00:05:27;15.20;99.90
14682;DHT22;7429;52.498;13.480;2022-08-07T00:08:30;15.20;99.90
14682;DHT22;7429;52.498;13.480;2022-08-07T00:11:37;15.20;99.90
14682;DHT22;7429;52.498;13.480;2022-08-07T00:14:55;15.20;99.90
14682;DHT22;7429;52.498;13.480;2022-08-07T00:17:58;15.10;99.90
14682;DHT22;7429;52.498;13.480;2022-08-07T00:21:03;15.10;99.90
14682;DHT22;7429;52.498;13.480;2022-08-07T00:24:28;15.10;99.90
14682;DHT22;7429;52.498;13.480;2022-08-07T00:27:34;15.00;99.90
14682;DHT22;7429;52.498;13.480;2022-08-07T00:30:53;14.90;99.90
14682;DHT22;7429;52.498;13.480;2022-08-07T00:33:56;14.90;99.90
14682;DHT22;7429;52.498;13.480;2022-08-07T00:37:00;14.90;99.90
14682;DHT22;7429;52.498;13.480;2022-08-07T00:40:06;14.90;99.90
14682;DHT22;7429;52.498;13.480;2022-08-07T00:43:18;14.80;99.90
14682;DHT22;7429;52.498;13.480;2022-08-07T00:46:41;14.80;99.90
14682;DHT22;7429;52.498;13.480;2022-08-07T00:49:44;14.70;99.90
14682;DHT22;7429;52.498;13.480;2022-08-07T00:53:07;14.70;99.90
14682;DHT22;7429;52.498;13.480;2022-08-07T00:56:11;14.70;99.90
14682;DHT22;7429;52.498;13.480;2022-08-07T00:59:18;14.70;99.90
14682;DHT22;7429;52.498;13.480;2022-08-07T01:02:37;14.60;99.90
14682;DHT22;7429;52.498;13.480;2022-08-07T01:05:41;14.60;99.90
14682;DHT22;7429;52.498;13.480;2022-08-07T01:08:54;14.50;99.90
14682;DHT22;7429;52.498;13.480;2022-08-07T01:12:04;14.50;99.90
14682;DHT22;7429;52.498;13.480;2022-08-07T01:15:31;14.50;99.90
14682;DHT22;7429;52.498;13.480;2022-08-07T01:18:57;14.40;99.90
14682;DHT22;7429;52.498;13.480;2022-08-07T01:22:03;14.40;99.90
14682;DHT22;7429;52.498;13.480;2022-08-07T01:25:14;14.30;99.90
14682;DHT22;7429;52.498;13.480;2022-08-07T01:28:38;14.30;99.90
14682;DHT22;7429;52.498;13.480;2022-08-07T01:31:49;14.30;99.90
14682;DHT22;7429;52.498;13.480;2022-08-07T01:34:53;14.20;99.90
14682;DHT22;7429;52.498;13.480;2022-08-07T01:38:00;14.20;99.90
14682;DHT22;7429;52.498;13.480;2022-08-07T01:41:04;14.10;99.90
14682;DHT22;7429;52.498;13.480;2022-08-07T01:44:12;14.10;99.90
14682;DHT22;7429;52.498;13.480;2022-08-07T01:47:18;14.00;99.90
14682;DHT22;7429;52.498;13.480;2022-08-07T01:50:46;14.00;99.90
14682;DHT22;7429;52.498;13.480;2022-08-07T01:54:00;14.00;99.90
14682;DHT22;7429;52.498;13.480;2022-08-07T01:57:27;14.00;99.90
14682;DHT22;7429;52.498;13.480;2022-08-07T02:00:38;14.00;99.90
14682;DHT22;7429;52.498;13.480;2022-08-07T02:03:54;13.90;99.90
14682;DHT22;7429;52.498;13.480;2022-08-07T02:07:00;13.90;99.90
14682;DHT22;7429;52.498;13.480;2022-08-07T02:10:08;13.90;99.90
14682;DHT22;7429;52.498;13.480;2022-08-07T02:13:16;13.80;99.90
14682;DHT22;7429;52.498;13.480;2022-08-07T02:16:29;13.80;99.90
14682;DHT22;7429;52.498;13.480;2022-08-07T02:19:35;13.80;99.90
14682;DHT22;7429;52.498;13.480;2022-08-07T02:23:01;13.70;99.90
14682;DHT22;7429;52.498;13.480;2022-08-07T02:26:07;13.70;99.90
14682;DHT22;7429;52.498;13.480;2022-08-07T02:29:32;13.70;99.90
14682;DHT22;7429;52.498;13.480;2022-08-07T02:32:50;13.70;99.90
14682;DHT22;7429;52.498;13.480;2022-08-07T02:36:10;13.70;99.90
14682;DHT22;7429;52.498;13.480;2022-08-07T02:39:39;13.60;99.90
14682;DHT22;7429;52.498;13.480;2022-08-07T02:43:07;13.50;99.90
14682;DHT22;7429;52.498;13.480;2022-08-07T02:46:12;13.50;99.90
14682;DHT22;7429;52.498;13.480;2022-08-07T02:49:16;13.50;99.90
14682;DHT22;7429;52.498;13.480;2022-08-07T02:52:42;13.50;99.90
14682;DHT22;7429;52.498;13.480;2022-08-07T02:55:52;13.50;99.90
14682;DHT22;7429;52.498;13.480;2022-08-07T02:59:10;13.40;99.90
14682;DHT22;7429;52.498;13.480;2022-08-07T03:02:16;13.40;99.90
14682;DHT22;7429;52.498;13.480;2022-08-07T03:05:20;13.40;99.90
14682;DHT22;7429;52.498;13.480;2022-08-07T03:08:25;13.40;99.90
14682;DHT22;7429;52.498;13.480;2022-08-07T03:11:34;13.30;99.90
14682;DHT22;7429;52.498;13.480;2022-08-07T03:14:43;13.30;99.90
14682;DHT22;7429;52.498;13.480;2022-08-07T03:17:53;13.30;99.90
14682;DHT22;7429;52.498;13.480;2022-08-07T03:21:00;13.30;99.90
14682;DHT22;7429;52.498;13.480;2022-08-07T03:24:04;13.20;99.90
14682;DHT22;7429;52.498;13.480;2022-08-07T03:27:28;13.20;99.90
14682;DHT22;7429;52.498;13.480;2022-08-07T03:30:54;13.20;99.90
14682;DHT22;7429;52.498;13.480;2022-08-07T03:34:20;13.20;99.90
14682;DHT22;7429;52.498;13.480;2022-08-07T03:37:36;13.10;99.90
14682;DHT22;7429;52.498;13.480;2022-08-07T03:40:56;13.10;99.90
14682;DHT22;7429;52.498;13.480;2022-08-07T03:44:03;13.10;99.90
14682;DHT22;7429;52.498;13.480;2022-08-07T03:47:12;13.00;99.90
14682;DHT22;7429;52.498;13.480;2022-08-07T03:50:19;13.00;99.90
14682;DHT22;7429;52.498;13.480;2022-08-07T03:53:26;13.00;99.90
14682;DHT22;7429;52.498;13.480;2022-08-07T03:56:51;13.00;99.90
14682;DHT22;7429;52.498;13.480;2022-08-07T04:00:06;13.00;99.90
14682;DHT22;7429;52.498;13.480;2022-08-07T04:03:22;12.90;99.90
14682;DHT22;7429;52.498;13.480;2022-08-07T04:06:26;12.90;99.90
14682;DHT22;7429;52.498;13.480;2022-08-07T04:09:41;13.00;99.90
14682;DHT22;7429;52.498;13.480;2022-08-07T04:12:54;13.00;99.90
14682;DHT22;7429;52.498;13.480;2022-08-07T04:15:59;13.00;99.90
14682;DHT22;7429;52.498;13.480;2022-08-07T04:19:06;13.00;99.90
14682;DHT22;7429;52.498;13.480;2022-08-07T04:22:21;13.00;99.90
14682;DHT22;7429;52.498;13.480;2022-08-07T04:25:32;13.10;99.90
14682;DHT22;7429;52.498;13.480;2022-08-07T04:28:40;13.10;99.90
14682;DHT22;7429;52.498;13.480;2022-08-07T04:31:46;13.20;99.90
14682;DHT22;7429;52.498;13.480;2022-08-07T04:35:11;13.20;99.90
14682;DHT22;7429;52.498;13.480;2022-08-07T04:38:17;13.30;99.90
14682;DHT22;7429;52.498;13.480;2022-08-07T04:41:22;13.30;99.90
14682;DHT22;7429;52.498;13.480;2022-08-07T04:44:28;13.40;99.90
14682;DHT22;7429;52.498;13.480;2022-08-07T04:47:36;13.50;99.90
14682;DHT22;7429;52.498;13.480;2022-08-07T04:51:07;13.50;99.90
14682;DHT22;7429;52.498;13.480;2022-08-07T04:54:25;13.60;99.90
14682;DHT22;7429;52.498;13.480;2022-08-07T04:57:39;13.60;99.90
14682;DHT22;7429;52.498;13.480;2022-08-07T05:01:12;13.70;99.90
14682;DHT22;7429;52.498;13.480;2022-08-07T05:04:30;13.80;99.90
14682;DHT22;7429;52.498;13.480;2022-08-07T05:07:53;14.00;99.90
14682;DHT22;7429;52.498;13.480;2022-08-07T05:11:04;14.10;99.90
14682;DHT22;7429;52.498;13.480;2022-08-07T05:14:24;14.30;99.90
14682;DHT22;7429;52.498;13.480;2022-08-07T05:17:54;14.40;99.90
14682;DHT22;7429;52.498;13.480;2022-08-07T05:21:03;14.60;99.90
14682;DHT22;7429;52.498;13.480;2022-08-07T05:24:12;14.80;99.90
14682;DHT22;7429;52.498;13.480;2022-08-07T05:27:26;14.90;99.90
14682;DHT22;7429;52.498;13.480;2022-08-07T05:30:54;15.00;99.90
14682;DHT22;7429;52.498;13.480;2022-08-07T05:34:01;15.10;99.90
14682;DHT22;7429;52.498;13.480;2022-08-07T05:37:14;15.20;99.90
14682;DHT22;7429;52.498;13.480;2022-08-07T05:40:35;15.30;99.90
14682;DHT22;7429;52.498;13.480;2022-08-07T05:43:54;15.40;99.90
14682;DHT22;7429;52.498;13.480;2022-08-07T05:47:17;15.40;99.90
14682;DHT22;7429;52.498;13.480;2022-08-07T05:50:24;15.50;99.90
14682;DHT22;7429;52.498;13.480;2022-08-07T05:53:29;15.60;99.90
14682;DHT22;7429;52.498;13.480;2022-08-07T05:56:54;15.70;99.90
14682;DHT22;7429;52.498;13.480;2022-08-07T06:00:00;15.80;99.90
14682;DHT22;7429;52.498;13.480;2022-08-07T06:03:13;16.00;99.90
14682;DHT22;7429;52.498;13.480;2022-08-07T06:06:19;16.20;99.90
14682;DHT22;7429;52.498;13.480;2022-08-07T06:09:31;16.30;99.90
14682;DHT22;7429;52.498;13.480;2022-08-07T06:12:56;16.40;99.90
14682;DHT22;7429;52.498;13.480;2022-08-07T06:16:00;16.50;99.90
14682;DHT22;7429;52.498;13.480;2022-08-07T06:19:05;16.60;99.90
14682;DHT22;7429;52.498;13.480;2022-08-07T06:22:19;16.70;99.90
14682;DHT22;7429;52.498;13.480;2022-08-07T06:25:40;16.90;99.90
14682;DHT22;7429;52.498;13.480;2022-08-07T06:28:59;17.10;99.90
14682;DHT22;7429;52.498;13.480;2022-08-07T06:32:07;17.30;99.90
14682;DHT22;7429;52.498;13.480;2022-08-07T06:35:14;17.40;99.90
14682;DHT22;7429;52.498;13.480;2022-08-07T06:38:20;17.60;99.90
14682;DHT22;7429;52.498;13.480;2022-08-07T06:41:29;17.80;99.90
14682;DHT22;7429;52.498;13.480;2022-08-07T06:44:57;17.90;99.90
14682;DHT22;7429;52.498;13.480;2022-08-07T06:48:02;18.20;99.90
14682;DHT22;7429;52.498;13.480;2022-08-07T06:51:20;18.40;99.90
14682;DHT22;7429;52.498;13.480;2022-08-07T06:54:39;18.60;99.90
14682;DHT22;7429;52.498;13.480;2022-08-07T06:58:04;18.80;99.90
14682;DHT22;7429;52.498;13.480;2022-08-07T07:01:21;18.80;99.90
14682;DHT22;7429;52.498;13.480;2022-08-07T07:04:24;19.00;99.90
14682;DHT22;7429;52.498;13.480;2022-08-07T07:07:33;19.10;99.90
14682;DHT22;7429;52.498;13.480;2022-08-07T07:10:56;19.10;99.90
14682;DHT22;7429;52.498;13.480;2022-08-07T07:14:03;19.20;99.90
14682;DHT22;7429;52.498;13.480;2022-08-07T07:17:17;19.40;99.90
14682;DHT22;7429;52.498;13.480;2022-08-07T07:20:44;19.50;99.90
14682;DHT22;7429;52.498;13.480;2022-08-07T07:23:52;19.70;99.90
14682;DHT22;7429;52.498;13.480;2022-08-07T07:27:13;19.80;99.90
14682;DHT22;7429;52.498;13.480;2022-08-07T07:30:17;19.90;99.90
14682;DHT22;7429;52.498;13.480;2022-08-07T07:33:41;20.00;99.90
14682;DHT22;7429;52.498;13.480;2022-08-07T07:36:59;20.10;99.90
14682;DHT22;7429;52.498;13.480;2022-08-07T07:40:24;20.30;99.90
14682;DHT22;7429;52.498;13.480;2022-08-07T07:43:30;20.40;99.90
14682;DHT22;7429;52.498;13.480;2022-08-07T07:46:54;20.50;99.90
14682;DHT22;7429;52.498;13.480;2022-08-07T07:50:21;20.70;99.90
14682;DHT22;7429;52.498;13.480;2022-08-07T07:53:42;20.80;99.90
14682;DHT22;7429;52.498;13.480;2022-08-07T07:56:54;21.00;99.90
14682;DHT22;7429;52.498;13.480;2022-08-07T07:59:59;21.10;99.90
14682;DHT22;7429;52.498;13.480;2022-08-07T08:03:13;21.20;99.90
14682;DHT22;7429;52.498;13.480;2022-08-07T08:06:41;21.40;99.90
14682;DHT22;7429;52.498;13.480;2022-08-07T08:09:54;21.30;99.90
14682;DHT22;7429;52.498;13.480;2022-08-07T08:13:08;21.40;99.90
14682;DHT22;7429;52.498;13.480;2022-08-07T08:16:18;21.40;99.90
14682;DHT22;7429;52.498;13.480;2022-08-07T08:19:27;21.50;99.90
14682;DHT22;7429;52.498;13.480;2022-08-07T08:22:53;21.50;99.90
14682;DHT22;7429;52.498;13.480;2022-08-07T08:26:16;21.60;99.90
14682;DHT22;7429;52.498;13.480;2022-08-07T08:29:42;21.70;99.90
14682;DHT22;7429;52.498;13.480;2022-08-07T08:33:00;21.70;99.90
14682;DHT22;7429;52.498;13.480;2022-08-07T08:36:06;21.90;99.90
14682;DHT22;7429;52.498;13.480;2022-08-07T08:39:14;22.10;99.90
14682;DHT22;7429;52.498;13.480;2022-08-07T08:42:24;22.30;99.90
14682;DHT22;7429;52.498;13.480;2022-08-07T08:45:35;22.50;99.90
14682;DHT22;7429;52.498;13.480;2022-08-07T08:49:06;22.60;99.90
14682;DHT22;7429;52.498;13.480;2022-08-07T08:52:18;22.80;99.90
14682;DHT22;7429;52.498;13.480;2022-08-07T08:55:38;22.80;99.90
14682;DHT22;7429;52.498;13.480;2022-08-07T08:59:03;23.00;99.90
14682;DHT22;7429;52.498;13.480;2022-08-07T09:02:19;23.30;99.90
14682;DHT22;7429;52.498;13.480;2022-08-07T09:05:42;23.30;99.90
14682;DHT22;7429;52.498;13.480;2022-08-07T09:08:57;23.40;99.90
14682;DHT22;7429;52.498;13.480;2022-08-07T09:12:36;23.40;99.90
14682;DHT22;7429;52.498;13.480;2022-08-07T09:16:01;23.70;99.90
14682;DHT22;7429;52.498;13.480;2022-08-07T09:19:45;23.80;99.90
14682;DHT22;7429;52.498;13.480;2022-08-07T09:23:03;24.10;99.90
14682;DHT22;7429;52.498;13.480;2022-08-07T09:26:44;24.10;99.90
14682;DHT22;7429;52.498;13.480;2022-08-07T09:29:59;24.20;99.90
14682;DHT22;7429;52.498;13.480;2022-08-07T09:33:17;24.40;99.90
14682;DHT22;7429;52.498;13.480;2022-08-07T09:36:58;24.20;99.90
14682;DHT22;7429;52.498;13.480;2022-08-07T09:40:12;24.20;99.90
14682;DHT22;7429;52.498;13.480;2022-08-07T09:43:25;24.50;99.90
14682;DHT22;7429;52.498;13.480;2022-08-07T09:47:04;24.60;99.90
14682;DHT22;7429;52.498;13.480;2022-08-07T09:50:38;24.80;99.90
14682;DHT22;7429;52.498;13.480;2022-08-07T09:53:57;24.90;99.90
14682;DHT22;7429;52.498;13.480;2022-08-07T09:57:25;25.00;99.90
14682;DHT22;7429;52.498;13.480;2022-08-07T10:01:01;25.30;99.90
14682;DHT22;7429;52.498;13.480;2022-08-07T10:04:47;25.50;99.90
14682;DHT22;7429;52.498;13.480;2022-08-07T10:08:16;25.60;99.90
14682;DHT22;7429;52.498;13.480;2022-08-07T10:11:53;25.80;99.90
14682;DHT22;7429;52.498;13.480;2022-08-07T10:15:37;25.80;99.90
14682;DHT22;7429;52.498;13.480;2022-08-07T10:19:03;25.90;99.90
14682;DHT22;7429;52.498;13.480;2022-08-07T10:22:42;25.90;99.90
14682;DHT22;7429;52.498;13.480;2022-08-07T10:26:00;26.10;99.90
14682;DHT22;7429;52.498;13.480;2022-08-07T10:29:22;26.20;99.90
14682;DHT22;7429;52.498;13.480;2022-08-07T10:32:47;26.10;99.90
14682;DHT22;7429;52.498;13.480;2022-08-07T10:36:14;25.60;99.90
14682;DHT22;7429;52.498;13.480;2022-08-07T10:39:42;25.00;99.90
14682;DHT22;7429;52.498;13.480;2022-08-07T10:43:11;24.80;99.90
14682;DHT22;7429;52.498;13.480;2022-08-07T10:46:26;24.70;99.90
14682;DHT22;7429;52.498;13.480;2022-08-07T10:49:36;24.60;99.90
14682;DHT22;7429;52.498;13.480;2022-08-07T10:52:59;24.50;99.90
14682;DHT22;7429;52.498;13.480;2022-08-07T10:56:19;24.60;99.90
14682;DHT22;7429;52.498;13.480;2022-08-07T10:59:58;24.90;99.90
14682;DHT22;7429;52.498;13.480;2022-08-07T11:03:10;25.50;99.90
14682;DHT22;7429;52.498;13.480;2022-08-07T11:06:20;26.00;99.90
14682;DHT22;7429;52.498;13.480;2022-08-07T11:09:32;26.30;99.90
14682;DHT22;7429;52.498;13.480;2022-08-07T11:13:18;26.30;99.90
14682;DHT22;7429;52.498;13.480;2022-08-07T11:16:49;26.50;99.90
14682;DHT22;7429;52.498;13.480;2022-08-07T11:20:03;26.30;99.90
14682;DHT22;7429;52.498;13.480;2022-08-07T11:23:16;26.10;99.90
14682;DHT22;7429;52.498;13.480;2022-08-07T11:26:37;26.00;99.90
14682;DHT22;7429;52.498;13.480;2022-08-07T11:29:54;25.90;99.90
14682;DHT22;7429;52.498;13.480;2022-08-07T11:33:26;26.20;99.90
14682;DHT22;7429;52.498;13.480;2022-08-07T11:36:58;26.10;99.90
14682;DHT22;7429;52.498;13.480;2022-08-07T11:40:15;26.40;99.90
14682;DHT22;7429;52.498;13.480;2022-08-07T11:43:30;26.80;99.90
14682;DHT22;7429;52.498;13.480;2022-08-07T11:47:03;27.20;99.90
14682;DHT22;7429;52.498;13.480;2022-08-07T11:50:26;27.30;99.90
14682;DHT22;7429;52.498;13.480;2022-08-07T11:53:42;27.60;99.90
14682;DHT22;7429;52.498;13.480;2022-08-07T11:57:11;27.70;99.90
14682;DHT22;7429;52.498;13.480;2022-08-07T12:00:54;27.90;99.90
14682;DHT22;7429;52.498;13.480;2022-08-07T12:04:23;28.20;99.90
14682;DHT22;7429;52.498;13.480;2022-08-07T12:07:35;28.00;99.90
14682;DHT22;7429;52.498;13.480;2022-08-07T12:10:46;27.60;99.90
14682;DHT22;7429;52.498;13.480;2022-08-07T12:14:14;27.30;99.90
14682;DHT22;7429;52.498;13.480;2022-08-07T12:17:24;27.00;99.90
14682;DHT22;7429;52.498;13.480;2022-08-07T12:20:43;26.60;99.90
14682;DHT22;7429;52.498;13.480;2022-08-07T12:23:56;26.40;99.90
14682;DHT22;7429;52.498;13.480;2022-08-07T12:27:16;26.40;99.90
14682;DHT22;7429;52.498;13.480;2022-08-07T12:30:41;26.30;99.90
14682;DHT22;7429;52.498;13.480;2022-08-07T12:33:49;26.10;99.90
14682;DHT22;7429;52.498;13.480;2022-08-07T12:37:05;26.00;99.90
14682;DHT22;7429;52.498;13.480;2022-08-07T12:40:31;25.90;99.90
14682;DHT22;7429;52.498;13.480;2022-08-07T12:43:50;25.80;99.90
14682;DHT22;7429;52.498;13.480;2022-08-07T12:47:10;25.70;99.90
14682;DHT22;7429;52.498;13.480;2022-08-07T12:50:31;25.70;99.90
14682;DHT22;7429;52.498;13.480;2022-08-07T12:53:48;25.60;99.90
14682;DHT22;7429;52.498;13.480;2022-08-07T12:57:14;25.60;99.90
14682;DHT22;7429;52.498;13.480;2022-08-07T13:00:30;25.50;99.90
14682;DHT22;7429;52.498;13.480;2022-08-07T13:03:59;25.40;99.90
14682;DHT22;7429;52.498;13.480;2022-08-07T13:07:21;25.20;99.90
14682;DHT22;7429;52.498;13.480;2022-08-07T13:11:09;25.40;99.90
14682;DHT22;7429;52.498;13.480;2022-08-07T13:14:30;26.50;99.90
14682;DHT22;7429;52.498;13.480;2022-08-07T13:17:57;27.50;99.90
14682;DHT22;7429;52.498;13.480;2022-08-07T13:21:09;28.10;99.90
14682;DHT22;7429;52.498;13.480;2022-08-07T13:24:39;28.60;99.90
14682;DHT22;7429;52.498;13.480;2022-08-07T13:28:01;29.30;99.90
14682;DHT22;7429;52.498;13.480;2022-08-07T13:31:20;29.50;99.90
14682;DHT22;7429;52.498;13.480;2022-08-07T13:34:39;29.80;99.20
14682;DHT22;7429;52.498;13.480;2022-08-07T13:37:57;30.00;99.50
14682;DHT22;7429;52.498;13.480;2022-08-07T13:41:09;30.00;99.00
14682;DHT22;7429;52.498;13.480;2022-08-07T13:44:22;30.10;98.40
14682;DHT22;7429;52.498;13.480;2022-08-07T13:47:36;30.30;97.80
14682;DHT22;7429;52.498;13.480;2022-08-07T13:51:00;30.40;98.00
14682;DHT22;7429;52.498;13.480;2022-08-07T13:54:28;30.70;98.50
14682;DHT22;7429;52.498;13.480;2022-08-07T13:57:34;30.70;97.40
14682;DHT22;7429;52.498;13.480;2022-08-07T14:01:10;30.70;97.30
14682;DHT22;7429;52.498;13.480;2022-08-07T14:04:15;30.80;97.00
14682;DHT22;7429;52.498;13.480;2022-08-07T14:07:25;30.70;97.60
14682;DHT22;7429;52.498;13.480;2022-08-07T14:10:33;30.70;97.10
14682;DHT22;7429;52.498;13.480;2022-08-07T14:13:48;30.70;96.90
14682;DHT22;7429;52.498;13.480;2022-08-07T14:16:59;30.60;96.80
14682;DHT22;7429;52.498;13.480;2022-08-07T14:20:26;30.10;96.90
14682;DHT22;7429;52.498;13.480;2022-08-07T14:23:48;29.60;96.60
14682;DHT22;7429;52.498;13.480;2022-08-07T14:27:05;29.30;96.20
14682;DHT22;7429;52.498;13.480;2022-08-07T14:30:31;29.10;98.30
14682;DHT22;7429;52.498;13.480;2022-08-07T14:33:37;29.30;96.50
14682;DHT22;7429;52.498;13.480;2022-08-07T14:36:46;28.90;97.10
14682;DHT22;7429;52.498;13.480;2022-08-07T14:39:57;28.30;97.60
14682;DHT22;7429;52.498;13.480;2022-08-07T14:43:21;27.90;97.70
14682;DHT22;7429;52.498;13.480;2022-08-07T14:46:47;27.50;97.80
14682;DHT22;7429;52.498;13.480;2022-08-07T14:50:11;27.20;97.60
14682;DHT22;7429;52.498;13.480;2022-08-07T14:53:22;26.80;97.60
14682;DHT22;7429;52.498;13.480;2022-08-07T14:56:48;26.60;98.40
14682;DHT22;7429;52.498;13.480;2022-08-07T14:59:54;26.70;99.00
14682;DHT22;7429;52.498;13.480;2022-08-07T15:03:07;27.00;98.10
14682;DHT22;7429;52.498;13.480;2022-08-07T15:06:24;27.00;98.60
14682;DHT22;7429;52.498;13.480;2022-08-07T15:09:38;27.10;98.20
14682;DHT22;7429;52.498;13.480;2022-08-07T15:13:02;27.00;98.40
14682;DHT22;7429;52.498;13.480;2022-08-07T15:16:15;27.10;99.30
14682;DHT22;7429;52.498;13.480;2022-08-07T15:19:36;27.40;97.60
14682;DHT22;7429;52.498;13.480;2022-08-07T15:23:02;27.70;98.70
14682;DHT22;7429;52.498;13.480;2022-08-07T15:26:31;28.30;98.60
14682;DHT22;7429;52.498;13.480;2022-08-07T15:29:40;28.60;97.10
14682;DHT22;7429;52.498;13.480;2022-08-07T15:33:05;28.70;97.10
14682;DHT22;7429;52.498;13.480;2022-08-07T15:36:22;29.10;98.10
14682;DHT22;7429;52.498;13.480;2022-08-07T15:39:49;29.60;96.90
14682;DHT22;7429;52.498;13.480;2022-08-07T15:43:03;29.80;96.90
14682;DHT22;7429;52.498;13.480;2022-08-07T15:46:36;30.20;97.30
14682;DHT22;7429;52.498;13.480;2022-08-07T15:50:02;30.40;96.20
14682;DHT22;7429;52.498;13.480;2022-08-07T15:53:09;30.60;96.40
14682;DHT22;7429;52.498;13.480;2022-08-07T15:56:16;30.80;96.20
14682;DHT22;7429;52.498;13.480;2022-08-07T15:59:27;31.00;96.10
14682;DHT22;7429;52.498;13.480;2022-08-07T16:02:46;30.90;95.90
14682;DHT22;7429;52.498;13.480;2022-08-07T16:05:51;30.70;96.10
14682;DHT22;7429;52.498;13.480;2022-08-07T16:09:00;30.30;95.90
14682;DHT22;7429;52.498;13.480;2022-08-07T16:12:21;30.10;95.90
14682;DHT22;7429;52.498;13.480;2022-08-07T16:15:40;29.80;96.10
14682;DHT22;7429;52.498;13.480;2022-08-07T16:19:25;29.50;97.40
14682;DHT22;7429;52.498;13.480;2022-08-07T16:23:17;29.10;95.70
14682;DHT22;7429;52.498;13.480;2022-08-07T16:26:55;28.80;96.80
14682;DHT22;7429;52.498;13.480;2022-08-07T16:30:20;28.50;96.90
14682;DHT22;7429;52.498;13.480;2022-08-07T16:33:36;28.10;97.00
14682;DHT22;7429;52.498;13.480;2022-08-07T16:37:20;27.80;98.60
14682;DHT22;7429;52.498;13.480;2022-08-07T16:45:11;27.60;97.40
14682;DHT22;7429;52.498;13.480;2022-08-07T16:53:23;27.20;98.50
14682;DHT22;7429;52.498;13.480;2022-08-07T16:57:01;26.60;97.70
14682;DHT22;7429;52.498;13.480;2022-08-07T17:00:18;26.40;98.30
14682;DHT22;7429;52.498;13.480;2022-08-07T17:03:38;26.40;99.90
14682;DHT22;7429;52.498;13.480;2022-08-07T17:07:08;26.40;98.30
14682;DHT22;7429;52.498;13.480;2022-08-07T17:10:33;26.30;98.10
14682;DHT22;7429;52.498;13.480;2022-08-07T17:14:01;26.10;98.20
14682;DHT22;7429;52.498;13.480;2022-08-07T17:17:32;25.80;99.10
14682;DHT22;7429;52.498;13.480;2022-08-07T17:20:47;25.50;98.50
14682;DHT22;7429;52.498;13.480;2022-08-07T17:24:03;25.30;99.20
14682;DHT22;7429;52.498;13.480;2022-08-07T17:27:32;25.30;98.90
14682;DHT22;7429;52.498;13.480;2022-08-07T17:30:59;25.20;99.40
14682;DHT22;7429;52.498;13.480;2022-08-07T17:34:31;25.30;99.00
14682;DHT22;7429;52.498;13.480;2022-08-07T17:38:00;25.20;99.00
14682;DHT22;7429;52.498;13.480;2022-08-07T17:41:31;25.00;99.10
14682;DHT22;7429;52.498;13.480;2022-08-07T17:44:58;24.90;99.40
14682;DHT22;7429;52.498;13.480;2022-08-07T17:48:05;24.80;98.90
14682;DHT22;7429;52.498;13.480;2022-08-07T17:51:19;24.70;99.80
14682;DHT22;7429;52.498;13.480;2022-08-07T17:54:31;24.80;99.90
14682;DHT22;7429;52.498;13.480;2022-08-07T17:57:59;24.80;99.90
14682;DHT22;7429;52.498;13.480;2022-08-07T18:01:19;24.70;99.20
14682;DHT22;7429;52.498;13.480;2022-08-07T18:05:09;24.60;99.90
14682;DHT22;7429;52.498;13.480;2022-08-07T18:09:27;24.40;99.90
14682;DHT22;7429;52.498;13.480;2022-08-07T18:13:44;24.40;99.90
14682;DHT22;7429;52.498;13.480;2022-08-07T18:17:43;24.30;99.90
14682;DHT22;7429;52.498;13.480;2022-08-07T18:21:59;24.00;99.90
14682;DHT22;7429;52.498;13.480;2022-08-07T18:25:47;24.00;99.90
14682;DHT22;7429;52.498;13.480;2022-08-07T18:29:45;23.90;99.90
14682;DHT22;7429;52.498;13.480;2022-08-07T18:33:43;23.80;99.90
14682;DHT22;7429;52.498;13.480;2022-08-07T18:37:11;23.60;99.90
14682;DHT22;7429;52.498;13.480;2022-08-07T18:40:54;23.40;99.90
14682;DHT22;7429;52.498;13.480;2022-08-07T18:44:28;23.40;99.90
14682;DHT22;7429;52.498;13.480;2022-08-07T18:48:07;23.20;99.90
14682;DHT22;7429;52.498;13.480;2022-08-07T18:51:36;23.20;99.90
14682;DHT22;7429;52.498;13.480;2022-08-07T18:55:14;23.10;99.90
14682;DHT22;7429;52.498;13.480;2022-08-07T18:58:53;22.90;99.90
14682;DHT22;7429;52.498;13.480;2022-08-07T19:02:11;22.90;99.90
14682;DHT22;7429;52.498;13.480;2022-08-07T19:05:40;22.80;99.90
14682;DHT22;7429;52.498;13.480;2022-08-07T19:09:11;22.70;99.90
14682;DHT22;7429;52.498;13.480;2022-08-07T19:12:53;22.50;99.90
14682;DHT22;7429;52.498;13.480;2022-08-07T19:16:20;22.40;99.90
14682;DHT22;7429;52.498;13.480;2022-08-07T19:19:54;22.40;99.90
14682;DHT22;7429;52.498;13.480;2022-08-07T19:23:06;22.30;99.90
14682;DHT22;7429;52.498;13.480;2022-08-07T19:26:23;22.20;99.90
14682;DHT22;7429;52.498;13.480;2022-08-07T19:29:31;22.20;99.90
14682;DHT22;7429;52.498;13.480;2022-08-07T19:33:01;22.20;99.90
14682;DHT22;7429;52.498;13.480;2022-08-07T19:36:17;22.00;99.90
14682;DHT22;7429;52.498;13.480;2022-08-07T19:39:30;21.90;99.90
14682;DHT22;7429;52.498;13.480;2022-08-07T19:42:55;21.90;99.90
14682;DHT22;7429;52.498;13.480;2022-08-07T19:46:01;21.80;99.90
14682;DHT22;7429;52.498;13.480;2022-08-07T19:49:15;21.70;99.90
14682;DHT22;7429;52.498;13.480;2022-08-07T19:52:40;21.50;99.90
14682;DHT22;7429;52.498;13.480;2022-08-07T19:56:01;21.50;99.90
14682;DHT22;7429;52.498;13.480;2022-08-07T19:59:16;21.40;99.90
14682;DHT22;7429;52.498;13.480;2022-08-07T20:02:42;21.30;99.90
14682;DHT22;7429;52.498;13.480;2022-08-07T20:05:57;21.20;99.90
14682;DHT22;7429;52.498;13.480;2022-08-07T20:09:04;21.20;99.90
14682;DHT22;7429;52.498;13.480;2022-08-07T20:12:29;21.10;99.90
14682;DHT22;7429;52.498;13.480;2022-08-07T20:15:36;21.00;99.90
14682;DHT22;7429;52.498;13.480;2022-08-07T20:18:42;20.90;99.90
14682;DHT22;7429;52.498;13.480;2022-08-07T20:21:48;20.90;99.90
14682;DHT22;7429;52.498;13.480;2022-08-07T20:24:57;20.80;99.90
14682;DHT22;7429;52.498;13.480;2022-08-07T20:28:10;20.70;99.90
14682;DHT22;7429;52.498;13.480;2022-08-07T20:31:17;20.60;99.90
14682;DHT22;7429;52.498;13.480;2022-08-07T20:34:25;20.60;99.90
14682;DHT22;7429;52.498;13.480;2022-08-07T20:37:50;20.50;99.90
14682;DHT22;7429;52.498;13.480;2022-08-07T20:41:03;20.40;99.90
14682;DHT22;7429;52.498;13.480;2022-08-07T20:44:10;20.30;99.90
14682;DHT22;7429;52.498;13.480;2022-08-07T20:47:19;20.20;99.90
14682;DHT22;7429;52.498;13.480;2022-08-07T20:50:27;20.10;99.90
14682;DHT22;7429;52.498;13.480;2022-08-07T20:53:32;20.10;99.90
14682;DHT22;7429;52.498;13.480;2022-08-07T20:57:00;20.00;99.90
14682;DHT22;7429;52.498;13.480;2022-08-07T21:00:06;19.90;99.90
14682;DHT22;7429;52.498;13.480;2022-08-07T21:03:14;19.90;99.90
14682;DHT22;7429;52.498;13.480;2022-08-07T21:06:25;19.80;99.90